createdAt,value
2018-11-04T00:01:36.791Z,8.20
2018-11-04T00:04:06.131Z,7.13
2018-11-04T00:06:35.469Z,4.30
2018-11-04T00:09:07.018Z,2.97
2018-11-04T00:11:36.313Z,9.77
2018-11-04T00:14:05.706Z,4.83
2018-11-04T00:16:35.312Z,4.53
2018-11-04T00:19:04.753Z,6.30
2018-11-04T00:21:34.068Z,5.57
2018-11-04T00:24:03.424Z,3.70
2018-11-04T00:26:32.730Z,7.43
2018-11-04T00:29:02.074Z,18.37
2018-11-04T00:31:31.372Z,8.80
2018-11-04T00:34:00.639Z,12.07
2018-11-04T00:36:29.888Z,10.73
2018-11-04T00:38:59.178Z,6.93
2018-11-04T00:41:28.419Z,5.63
2018-11-04T00:43:57.611Z,4.80
2018-11-04T00:46:26.860Z,5.03
2018-11-04T00:48:56.124Z,6.57
2018-11-04T00:51:25.375Z,8.13
2018-11-04T00:53:54.708Z,5.53
2018-11-04T00:56:23.977Z,6.57
2018-11-04T00:58:53.248Z,4.90
2018-11-04T01:01:22.612Z,5.30
2018-11-04T01:03:51.888Z,6.93
2018-11-04T01:06:21.134Z,5.00
2018-11-04T01:08:50.413Z,4.50
2018-11-04T01:11:19.644Z,3.57
2018-11-04T01:13:48.992Z,9.57
2018-11-04T01:16:18.233Z,8.77
2018-11-04T01:18:47.442Z,3.30
2018-11-04T01:21:16.743Z,2.70
2018-11-04T01:23:46.064Z,4.90
2018-11-04T01:26:15.341Z,6.03
2018-11-04T01:28:44.631Z,4.13
2018-11-04T01:31:13.966Z,9.40
2018-11-04T01:33:43.227Z,7.60
2018-11-04T01:36:12.438Z,5.90
2018-11-04T01:38:41.749Z,5.03
2018-11-04T01:41:11.033Z,4.83
2018-11-04T01:43:40.273Z,4.03
2018-11-04T01:46:09.589Z,9.17
2018-11-04T01:48:38.816Z,4.23
2018-11-04T01:51:08.090Z,6.93
2018-11-04T01:53:37.408Z,2.90
2018-11-04T01:56:06.697Z,5.20
2018-11-04T01:58:35.964Z,5.00
2018-11-04T02:01:05.337Z,4.03
2018-11-04T02:03:34.604Z,6.60
2018-11-04T02:06:03.880Z,5.60
2018-11-04T02:08:33.130Z,7.83
2018-11-04T02:11:02.396Z,3.80
2018-11-04T02:13:31.693Z,6.40
2018-11-04T02:16:00.993Z,5.83
2018-11-04T02:18:30.272Z,4.00
2018-11-04T02:20:59.567Z,5.53
2018-11-04T02:23:28.902Z,6.40
2018-11-04T02:25:58.282Z,5.90
2018-11-04T02:28:28.096Z,11.63
2018-11-04T02:30:57.442Z,6.57
2018-11-04T02:33:26.796Z,4.83
2018-11-04T02:35:56.166Z,10.87
2018-11-04T02:38:25.472Z,5.60
2018-11-04T02:40:54.757Z,6.63
2018-11-04T02:43:24.062Z,8.87
2018-11-04T02:45:53.396Z,5.80
2018-11-04T02:48:22.714Z,4.40
2018-11-04T02:50:52.091Z,7.93
2018-11-04T02:53:21.406Z,7.00
2018-11-04T02:55:50.756Z,4.47
2018-11-04T02:58:20.067Z,7.60
2018-11-04T03:00:49.391Z,4.37
2018-11-04T03:03:18.703Z,4.40
2018-11-04T03:05:48.006Z,7.40
2018-11-04T03:08:17.268Z,4.83
2018-11-04T03:10:46.568Z,7.70
2018-11-04T03:13:15.904Z,4.13
2018-11-04T03:15:45.172Z,4.30
2018-11-04T03:18:14.424Z,5.73
2018-11-04T03:20:43.712Z,5.43
2018-11-04T03:23:13.000Z,5.30
2018-11-04T03:25:42.465Z,4.10
2018-11-04T03:28:11.736Z,4.30
2018-11-04T03:30:41.063Z,4.30
2018-11-04T03:33:10.533Z,9.23
2018-11-04T03:35:39.813Z,5.40
2018-11-04T03:38:09.449Z,6.53
2018-11-04T03:40:38.753Z,10.90
2018-11-04T03:43:08.029Z,5.03
2018-11-04T03:45:37.348Z,6.40
2018-11-04T03:48:06.839Z,6.07
2018-11-04T03:50:36.125Z,4.37
2018-11-04T03:53:06.069Z,10.20
2018-11-04T03:55:36.456Z,4.33
2018-11-04T03:58:05.922Z,4.50
2018-11-04T04:00:35.193Z,7.43
2018-11-04T04:03:04.476Z,8.43
2018-11-04T04:05:33.829Z,7.17
2018-11-04T04:08:03.153Z,8.23
2018-11-04T04:10:32.415Z,4.83
2018-11-04T04:13:01.787Z,5.43
2018-11-04T04:15:31.092Z,4.57
2018-11-04T04:18:00.478Z,7.90
2018-11-04T04:20:29.692Z,5.00
2018-11-04T04:22:58.961Z,5.10
2018-11-04T04:25:28.197Z,11.03
2018-11-04T04:27:57.478Z,4.60
2018-11-04T04:30:26.689Z,7.20
2018-11-04T04:32:55.940Z,5.10
2018-11-04T04:35:25.240Z,7.70
2018-11-04T04:37:54.523Z,5.40
2018-11-04T04:40:23.789Z,4.60
2018-11-04T04:42:53.100Z,8.30
2018-11-04T04:45:22.334Z,5.13
2018-11-04T04:47:51.545Z,4.40
2018-11-04T04:50:20.852Z,3.90
2018-11-04T04:52:50.089Z,6.00
2018-11-04T04:55:19.332Z,5.10
2018-11-04T04:57:48.585Z,5.60
2018-11-04T05:00:17.894Z,6.67
2018-11-04T05:02:47.167Z,3.20
2018-11-04T05:05:16.474Z,3.10
2018-11-04T05:07:45.818Z,4.20
2018-11-04T05:10:15.081Z,4.27
2018-11-04T05:12:44.436Z,3.10
2018-11-04T05:15:13.767Z,3.70
2018-11-04T05:17:43.029Z,6.77
2018-11-04T05:20:12.337Z,2.87
2018-11-04T05:22:41.617Z,3.43
2018-11-04T05:25:10.889Z,3.17
2018-11-04T05:27:40.164Z,3.47
2018-11-04T05:30:11.165Z,3.20
2018-11-04T05:32:40.536Z,4.67
2018-11-04T05:35:09.789Z,3.67
2018-11-04T05:37:39.044Z,3.40
2018-11-04T05:40:08.704Z,5.63
2018-11-04T05:42:38.024Z,3.90
2018-11-04T05:45:08.330Z,4.47
2018-11-04T05:47:37.692Z,3.50
2018-11-04T05:50:07.131Z,3.40
2018-11-04T05:52:36.826Z,4.40
2018-11-04T05:55:07.265Z,4.27
2018-11-04T05:57:36.558Z,3.17
2018-11-04T06:00:06.861Z,4.90
2018-11-04T06:02:36.152Z,6.53
2018-11-04T06:05:06.028Z,6.70
2018-11-04T06:07:35.347Z,5.20
2018-11-04T06:10:04.713Z,3.90
2018-11-04T06:12:33.965Z,4.63
2018-11-04T06:15:03.325Z,6.47
2018-11-04T06:17:32.587Z,5.60
2018-11-04T06:20:01.810Z,8.50
2018-11-04T06:22:31.085Z,7.00
2018-11-04T06:25:00.344Z,5.10
2018-11-04T06:27:29.624Z,6.93
2018-11-04T06:29:58.943Z,5.07
2018-11-04T06:32:28.188Z,7.90
2018-11-04T06:34:57.495Z,5.93
2018-11-04T06:37:26.814Z,4.57
2018-11-04T06:39:56.395Z,5.70
2018-11-04T06:42:25.653Z,11.53
2018-11-04T06:44:54.964Z,9.53
2018-11-04T06:47:24.272Z,8.30
2018-11-04T06:49:53.598Z,6.40
2018-11-04T06:52:22.908Z,4.97
2018-11-04T06:54:52.145Z,9.33
2018-11-04T06:57:21.592Z,8.17
2018-11-04T06:59:50.910Z,6.63
2018-11-04T07:02:20.176Z,6.10
2018-11-04T07:04:49.490Z,4.50
2018-11-04T07:07:18.791Z,6.63
2018-11-04T07:09:48.036Z,7.70
2018-11-04T07:12:17.360Z,4.90
2018-11-04T07:14:46.658Z,4.77
2018-11-04T07:17:15.966Z,12.00
2018-11-04T07:19:48.530Z,4.73
2018-11-04T07:22:17.835Z,9.17
2018-11-04T07:24:47.256Z,7.13
2018-11-04T07:27:16.560Z,6.63
2018-11-04T07:29:45.800Z,10.10
2018-11-04T07:32:15.229Z,8.80
2018-11-04T07:34:44.562Z,10.97
2018-11-04T07:37:13.886Z,8.10
2018-11-04T07:39:43.196Z,6.00
2018-11-04T07:42:12.565Z,7.90
2018-11-04T07:44:41.880Z,12.10
2018-11-04T07:47:11.125Z,8.37
2018-11-04T07:49:40.449Z,5.67
2018-11-04T07:52:09.761Z,5.63
2018-11-04T07:54:39.069Z,5.00
2018-11-04T07:57:08.265Z,13.13
2018-11-04T07:59:37.528Z,9.33
2018-11-04T08:02:06.948Z,5.17
2018-11-04T08:04:36.283Z,8.87
2018-11-04T08:07:05.578Z,5.50
2018-11-04T08:09:34.771Z,8.07
2018-11-04T08:12:03.987Z,9.27
2018-11-04T08:14:33.227Z,5.40
2018-11-04T08:17:02.453Z,5.93
2018-11-04T08:19:31.710Z,5.50
2018-11-04T08:22:00.952Z,7.37
2018-11-04T08:24:30.220Z,8.63
2018-11-04T08:26:59.540Z,9.13
2018-11-04T08:29:28.752Z,6.23
2018-11-04T08:31:58.091Z,6.90
2018-11-04T08:34:27.353Z,8.97
2018-11-04T08:36:56.596Z,6.53
2018-11-04T08:39:25.796Z,6.20
2018-11-04T08:41:55.073Z,5.70
2018-11-04T08:44:24.432Z,15.43
2018-11-04T08:46:53.660Z,7.70
2018-11-04T08:49:22.906Z,7.57
2018-11-04T08:51:52.249Z,9.17
2018-11-04T08:54:21.408Z,7.60
2018-11-04T08:56:50.966Z,6.07
2018-11-04T08:59:20.267Z,7.23
2018-11-04T09:01:49.485Z,7.53
2018-11-04T09:04:18.676Z,10.70
2018-11-04T09:06:47.951Z,7.37
2018-11-04T09:09:17.135Z,7.00
2018-11-04T09:11:46.529Z,6.90
2018-11-04T09:14:15.947Z,5.00
2018-11-04T09:16:45.091Z,9.73
2018-11-04T09:19:14.420Z,4.33
2018-11-04T09:21:43.877Z,8.50
2018-11-04T09:24:13.171Z,6.17
2018-11-04T09:26:42.401Z,8.67
2018-11-04T09:29:11.789Z,12.70
2018-11-04T09:31:40.991Z,6.20
2018-11-04T09:34:10.280Z,9.77
2018-11-04T09:36:40.022Z,10.10
2018-11-04T09:39:11.013Z,6.37
2018-11-04T09:41:40.237Z,8.63
2018-11-04T09:44:10.871Z,7.33
2018-11-04T09:46:40.131Z,9.43
2018-11-04T09:49:09.332Z,14.27
2018-11-04T09:51:38.623Z,8.50
2018-11-04T09:54:07.818Z,8.53
2018-11-04T09:56:37.132Z,8.70
2018-11-04T09:59:06.755Z,12.17
2018-11-04T10:01:35.920Z,10.63
2018-11-04T10:04:05.709Z,9.97
2018-11-04T10:06:35.004Z,14.40
2018-11-04T10:09:04.960Z,10.90
2018-11-04T10:11:34.152Z,13.50
2018-11-04T10:14:03.375Z,7.87
2018-11-04T10:16:32.555Z,11.20
2018-11-04T10:19:01.918Z,11.00
2018-11-04T10:21:31.209Z,13.73
2018-11-04T10:24:00.433Z,10.27
2018-11-04T10:26:29.727Z,12.30
2018-11-04T10:28:58.943Z,15.20
2018-11-04T10:31:28.117Z,8.80
2018-11-04T10:33:57.460Z,12.00
2018-11-04T10:36:26.816Z,13.63
2018-11-04T10:38:56.048Z,11.40
2018-11-04T10:41:25.229Z,12.70
2018-11-04T10:43:54.501Z,14.67
2018-11-04T10:46:24.255Z,15.70
2018-11-04T10:48:53.514Z,11.97
2018-11-04T10:51:22.728Z,14.67
2018-11-04T10:53:51.891Z,11.67
2018-11-04T10:56:21.114Z,17.07
2018-11-04T10:58:50.407Z,10.13
2018-11-04T11:01:19.615Z,16.97
2018-11-04T11:03:48.854Z,12.63
2018-11-04T11:06:18.089Z,9.65
2018-11-04T11:08:47.312Z,7.50
2018-11-04T11:11:16.548Z,9.05
2018-11-04T11:13:45.840Z,12.07
2018-11-04T11:16:15.051Z,10.50
2018-11-04T11:18:44.367Z,7.47
2018-11-04T11:21:13.609Z,10.03
2018-11-04T11:23:42.877Z,9.68
2018-11-04T11:26:12.187Z,7.10
2018-11-04T11:28:41.506Z,6.90
2018-11-04T11:31:10.716Z,10.23
2018-11-04T11:33:39.974Z,9.57
2018-11-04T11:36:09.208Z,7.43
2018-11-04T11:38:38.419Z,10.40
2018-11-04T11:41:07.687Z,10.37
2018-11-04T11:43:37.037Z,10.30
2018-11-04T11:46:06.719Z,4.90
2018-11-04T11:48:35.907Z,7.23
2018-11-04T11:51:05.359Z,4.60
2018-11-04T11:53:34.556Z,6.20
2018-11-04T11:56:03.737Z,5.43
2018-11-04T11:58:32.944Z,5.73
2018-11-04T12:01:02.140Z,6.23
2018-11-04T12:03:31.331Z,8.93
2018-11-04T12:06:00.530Z,5.47
2018-11-04T12:08:29.775Z,7.70
2018-11-04T12:10:58.967Z,7.37
2018-11-04T12:13:28.242Z,7.87
2018-11-04T12:15:57.596Z,11.67
2018-11-04T12:18:26.817Z,6.03
2018-11-04T12:20:56.026Z,11.17
2018-11-04T12:23:25.346Z,12.40
2018-11-04T12:25:54.546Z,6.40
2018-11-04T12:28:23.828Z,7.27
2018-11-04T12:30:53.115Z,5.33
2018-11-04T12:33:22.303Z,4.70
2018-11-04T12:35:51.537Z,8.23
2018-11-04T12:38:21.747Z,7.63
2018-11-04T12:40:50.971Z,10.07
2018-11-04T12:43:20.241Z,6.47
2018-11-04T12:45:49.601Z,7.10
2018-11-04T12:48:18.743Z,7.60
2018-11-04T12:50:47.981Z,13.53
2018-11-04T12:53:17.195Z,5.63
2018-11-04T12:55:46.431Z,7.43
2018-11-04T12:58:15.678Z,6.23
2018-11-04T13:00:44.925Z,8.00
2018-11-04T13:03:14.226Z,6.13
2018-11-04T13:05:43.512Z,8.93
2018-11-04T13:08:12.831Z,8.43
2018-11-04T13:10:42.024Z,10.13
2018-11-04T13:13:11.269Z,10.80
2018-11-04T13:15:40.552Z,7.80
2018-11-04T13:18:09.776Z,4.53
2018-11-04T13:20:39.109Z,9.17
2018-11-04T13:23:08.397Z,8.37
2018-11-04T13:25:37.722Z,8.03
2018-11-04T13:28:07.189Z,9.50
2018-11-04T13:30:36.709Z,7.13
2018-11-04T13:33:06.002Z,7.97
2018-11-04T13:35:35.151Z,5.37
2018-11-04T13:38:04.419Z,7.73
2018-11-04T13:40:33.731Z,6.53
2018-11-04T13:43:03.045Z,6.60
2018-11-04T13:45:32.404Z,5.50
2018-11-04T13:48:01.737Z,8.37
2018-11-04T13:50:30.931Z,4.97
2018-11-04T13:53:00.371Z,6.57
2018-11-04T13:55:29.598Z,8.23
2018-11-04T13:57:58.883Z,4.83
2018-11-04T14:00:28.092Z,5.43
2018-11-04T14:02:57.419Z,4.20
2018-11-04T14:05:26.608Z,5.50
2018-11-04T14:07:55.888Z,6.60
2018-11-04T14:10:25.075Z,4.73
2018-11-04T14:12:54.344Z,4.20
2018-11-04T14:15:23.560Z,10.37
2018-11-04T14:17:52.777Z,6.43
2018-11-04T14:20:22.580Z,4.10
2018-11-04T14:22:51.896Z,7.00
2018-11-04T14:25:21.116Z,9.33
2018-11-04T14:27:50.373Z,6.37
2018-11-04T14:30:19.723Z,7.77
2018-11-04T14:32:49.009Z,4.17
2018-11-04T14:35:18.278Z,9.37
2018-11-04T14:37:48.230Z,7.93
2018-11-04T14:40:18.297Z,6.80
2018-11-04T14:42:47.540Z,7.00
2018-11-04T14:45:16.768Z,10.10
2018-11-04T14:47:46.068Z,5.20
2018-11-04T14:50:16.755Z,5.57
2018-11-04T14:52:46.077Z,8.77
2018-11-04T14:55:15.271Z,14.63
2018-11-04T14:57:44.515Z,5.53
2018-11-04T15:00:15.083Z,13.13
2018-11-04T15:02:44.284Z,9.63
2018-11-04T15:05:13.732Z,11.30
2018-11-04T15:07:43.018Z,5.73
2018-11-04T15:10:13.740Z,5.60
2018-11-04T15:12:43.148Z,6.43
2018-11-04T15:15:13.957Z,8.33
2018-11-04T15:17:43.649Z,7.73
2018-11-04T15:20:13.227Z,20.47
2018-11-04T15:22:48.612Z,7.00
2018-11-04T15:25:19.235Z,6.53
2018-11-04T15:27:48.823Z,6.37
2018-11-04T15:30:18.015Z,13.90
2018-11-04T15:32:47.379Z,12.83
2018-11-04T15:35:18.167Z,11.80
2018-11-04T15:37:47.489Z,12.23
2018-11-04T15:40:17.317Z,9.88
2018-11-04T15:42:46.606Z,10.23
2018-11-04T15:45:16.524Z,9.90
2018-11-04T15:47:45.816Z,10.73
2018-11-04T15:50:16.501Z,11.37
2018-11-04T15:52:45.923Z,8.17
2018-11-04T15:55:15.191Z,11.63
2018-11-04T15:57:44.555Z,8.77
2018-11-04T16:00:15.093Z,9.70
2018-11-04T16:02:44.548Z,9.78
2018-11-04T16:05:13.969Z,12.53
2018-11-04T16:07:43.311Z,8.50
2018-11-04T16:10:12.987Z,5.83
2018-11-04T16:12:42.234Z,9.27
2018-11-04T16:15:13.582Z,6.77
2018-11-04T16:17:43.360Z,6.67
2018-11-04T16:20:14.912Z,6.83
2018-11-04T16:22:44.819Z,8.17
2018-11-04T16:25:15.254Z,8.83
2018-11-04T16:27:44.584Z,8.68
2018-11-04T16:30:14.964Z,12.53
2018-11-04T16:32:44.351Z,8.30
2018-11-04T16:35:14.516Z,10.30
2018-11-04T16:37:44.790Z,9.27
2018-11-04T16:40:14.120Z,10.83
2018-11-04T16:42:43.440Z,15.63
2018-11-04T16:45:14.922Z,8.00
2018-11-04T16:47:44.322Z,11.13
2018-11-04T16:50:14.590Z,9.03
2018-11-04T16:52:45.599Z,13.30
2018-11-04T16:55:15.225Z,9.73
2018-11-04T16:57:44.767Z,13.13
2018-11-04T17:00:14.126Z,8.27
2018-11-04T17:02:44.501Z,11.70
2018-11-04T17:05:14.620Z,11.47
2018-11-04T17:07:44.148Z,14.43
2018-11-04T17:10:13.453Z,10.53
2018-11-04T17:12:42.803Z,10.67
2018-11-04T17:15:14.794Z,10.60
2018-11-04T17:17:45.268Z,14.90
2018-11-04T17:20:16.509Z,15.57
2018-11-04T17:22:46.235Z,11.10
2018-11-04T17:25:15.589Z,13.43
2018-11-04T17:27:45.763Z,16.83
2018-11-04T17:30:18.527Z,14.50
2018-11-04T17:32:48.286Z,18.10
2018-11-04T17:35:18.384Z,15.37
2018-11-04T17:37:48.107Z,17.17
2018-11-04T17:40:18.016Z,21.33
2018-11-04T17:42:47.305Z,19.03
2018-11-04T17:45:17.436Z,21.03
2018-11-04T17:47:47.486Z,17.00
2018-11-04T17:50:18.135Z,27.83
2018-11-04T17:52:47.458Z,18.93
2018-11-04T17:55:17.060Z,15.87
2018-11-04T17:57:46.518Z,20.00
2018-11-04T18:00:17.646Z,23.10
2018-11-04T18:02:47.079Z,20.27
2018-11-04T18:05:16.356Z,23.90
2018-11-04T18:07:45.813Z,21.83
2018-11-04T18:10:16.121Z,18.73
2018-11-04T18:12:45.496Z,20.73
2018-11-04T18:15:15.299Z,22.93
2018-11-04T18:17:44.600Z,27.23
2018-11-04T18:20:14.282Z,22.73
2018-11-04T18:22:43.569Z,18.43
2018-11-04T18:25:13.528Z,25.07
2018-11-04T18:27:43.708Z,19.53
2018-11-04T18:30:14.780Z,26.00
2018-11-04T18:32:44.723Z,21.90
2018-11-04T18:35:14.016Z,24.73
2018-11-04T18:37:43.528Z,25.93
2018-11-04T18:40:15.262Z,20.30
2018-11-04T18:42:45.127Z,27.40
2018-11-04T18:45:15.513Z,23.37
2018-11-04T18:47:45.177Z,26.83
2018-11-04T18:50:15.295Z,19.83
2018-11-04T18:52:44.846Z,22.17
2018-11-04T18:55:14.302Z,22.73
2018-11-04T18:57:44.897Z,23.60
2018-11-04T19:00:16.041Z,23.53
2018-11-04T19:02:46.279Z,36.50
2018-11-04T19:05:15.725Z,32.77
2018-11-04T19:07:46.149Z,27.77
2018-11-04T19:10:17.347Z,27.03
2018-11-04T19:12:46.861Z,29.07
2018-11-04T19:15:17.391Z,24.90
2018-11-04T19:17:48.067Z,21.20
2018-11-04T19:20:17.483Z,27.97
2018-11-04T19:22:46.945Z,25.90
2018-11-04T19:25:17.002Z,26.50
2018-11-04T19:27:46.542Z,24.43
2018-11-04T19:30:17.218Z,23.10
2018-11-04T19:32:50.011Z,21.97
2018-11-04T19:35:22.896Z,18.87
2018-11-04T19:37:53.029Z,26.00
2018-11-04T19:40:22.518Z,25.33
2018-11-04T19:42:51.963Z,27.17
2018-11-04T19:45:21.340Z,24.00
2018-11-04T19:47:50.612Z,23.93
2018-11-04T19:50:19.849Z,23.07
2018-11-04T19:52:49.144Z,26.20
2018-11-04T19:55:18.351Z,17.63
2018-11-04T19:57:47.826Z,39.57
2018-11-04T20:00:18.084Z,25.73
2018-11-04T20:02:51.796Z,24.80
2018-11-04T20:05:23.244Z,16.70
2018-11-04T20:07:52.603Z,21.70
2018-11-04T20:10:21.948Z,19.57
2018-11-04T20:12:56.410Z,20.30
2018-11-04T20:15:25.760Z,25.80
2018-11-04T20:17:55.027Z,18.00
2018-11-04T20:20:26.034Z,19.50
2018-11-04T20:22:55.387Z,30.03
2018-11-04T20:25:29.854Z,26.50
2018-11-04T20:27:59.250Z,24.97
2018-11-04T20:30:28.548Z,23.40
2018-11-04T20:33:04.477Z,28.57
2018-11-04T20:35:33.854Z,21.70
2018-11-04T20:38:03.159Z,25.33
2018-11-04T20:40:37.473Z,26.03
2018-11-04T20:43:07.166Z,29.20
2018-11-04T20:45:36.437Z,24.17
2018-11-04T20:48:11.367Z,22.97
2018-11-04T20:50:45.907Z,24.70
2018-11-04T20:53:15.217Z,28.23
2018-11-04T20:55:49.549Z,27.03
2018-11-04T20:58:18.981Z,30.70
2018-11-04T21:00:48.110Z,25.80
2018-11-04T21:03:17.408Z,25.27
2018-11-04T21:05:46.681Z,23.80
2018-11-04T21:08:15.935Z,24.97
2018-11-04T21:10:45.206Z,26.87
2018-11-04T21:13:14.509Z,24.93
2018-11-04T21:15:43.821Z,22.97
2018-11-04T21:18:13.061Z,29.47
2018-11-04T21:20:42.341Z,23.93
2018-11-04T21:23:11.664Z,24.20
2018-11-04T21:25:41.179Z,22.03
2018-11-04T21:28:10.360Z,21.50
2018-11-04T21:30:39.595Z,21.30
2018-11-04T21:33:08.892Z,23.80
2018-11-04T21:35:38.180Z,25.03
2018-11-04T21:38:07.481Z,25.40
2018-11-04T21:40:36.884Z,25.93
2018-11-04T21:43:06.327Z,25.37
2018-11-04T21:45:35.537Z,29.23
2018-11-04T21:48:04.889Z,23.03
2018-11-04T21:50:34.204Z,37.90
2018-11-04T21:53:03.728Z,37.20
2018-11-04T21:55:33.208Z,21.93
2018-11-04T21:58:02.380Z,23.57
2018-11-04T22:00:31.714Z,24.03
2018-11-04T22:03:01.012Z,24.77
2018-11-04T22:05:30.474Z,25.03
2018-11-04T22:07:59.836Z,24.20
2018-11-04T22:10:29.163Z,23.53
2018-11-04T22:12:58.465Z,21.67
2018-11-04T22:15:27.842Z,21.40
2018-11-04T22:17:57.101Z,24.23
2018-11-04T22:20:26.453Z,21.00
2018-11-04T22:22:55.795Z,24.43
2018-11-04T22:25:25.076Z,21.83
2018-11-04T22:27:54.341Z,26.50
2018-11-04T22:30:23.729Z,21.33
2018-11-04T22:32:52.994Z,22.10
2018-11-04T22:35:22.247Z,20.43
2018-11-04T22:37:51.548Z,23.73
2018-11-04T22:40:20.778Z,21.60
2018-11-04T22:42:50.043Z,22.73
2018-11-04T22:45:19.327Z,22.67
2018-11-04T22:47:48.590Z,25.93
2018-11-04T22:50:17.831Z,23.43
2018-11-04T22:52:47.066Z,21.27
2018-11-04T22:55:16.343Z,35.23
2018-11-04T22:57:45.850Z,22.03
2018-11-04T23:00:20.298Z,23.37
2018-11-04T23:02:50.477Z,24.20
2018-11-04T23:05:24.849Z,27.47
2018-11-04T23:07:54.151Z,34.40
2018-11-04T23:10:23.460Z,31.40
2018-11-04T23:12:52.744Z,29.80
2018-11-04T23:15:22.016Z,34.17
2018-11-04T23:17:51.326Z,27.40
2018-11-04T23:20:20.649Z,35.57
2018-11-04T23:22:50.021Z,28.53
2018-11-04T23:25:19.344Z,27.20
2018-11-04T23:27:48.581Z,27.63
2018-11-04T23:30:19.014Z,29.13
2018-11-04T23:32:48.606Z,27.00
2018-11-04T23:35:17.882Z,29.40
2018-11-04T23:37:47.175Z,26.80
2018-11-04T23:40:16.416Z,27.97
2018-11-04T23:42:45.712Z,29.73
2018-11-04T23:45:15.547Z,31.13
2018-11-04T23:47:44.994Z,26.77
2018-11-04T23:50:15.477Z,29.67
2018-11-04T23:52:45.212Z,30.53
2018-11-04T23:55:15.239Z,31.83
2018-11-04T23:57:44.517Z,28.00
